Time;durP1;ratioP1;P1;durP2;ratioP2;P2;SDS_P1;SDS_P2;PMS_P1;PMS_P2;Temp;Humidity;BMP_temperature;BMP_pressure;BME280_temperature;BME280_humidity;BME280_pressure;Samples;Min_cycle;Max_cycle;Signal;HPM_P1;HPM_P2
2021/04/07 00:00:39;;;;;;;20.70;10.40;;;-0.50;99.90;;;;;;4955009;29;20189;-93
2021/04/07 00:03:07;;;;;;;19.13;10.30;;;-0.60;99.90;;;;;;4956713;28;20190;-90
2021/04/07 00:05:39;;;;;;;22.37;10.73;;;-0.60;99.90;;;;;;4957974;29;20183;-94
2021/04/07 00:08:05;;;;;;;21.70;9.20;;;-0.60;99.90;;;;;;4957542;29;20672;-93
2021/04/07 00:10:40;;;;;;;23.90;9.63;;;-0.60;99.90;;;;;;4957251;28;20234;-93
2021/04/07 00:13:07;;;;;;;29.87;9.87;;;-0.60;99.90;;;;;;4958562;28;20185;-89
2021/04/07 00:15:34;;;;;;;21.57;9.33;;;-0.60;99.90;;;;;;4955548;28;20566;-92
2021/04/07 00:18:01;;;;;;;23.47;9.40;;;-0.70;99.90;;;;;;4956120;28;20250;-92
2021/04/07 00:20:27;;;;;;;18.77;9.37;;;-0.60;99.90;;;;;;4955425;29;20543;-92
2021/04/07 00:22:53;;;;;;;23.40;10.27;;;-0.70;99.90;;;;;;4956163;28;20182;-92
2021/04/07 00:25:20;;;;;;;25.67;10.57;;;-0.70;99.90;;;;;;4954632;29;20194;-92
2021/04/07 00:27:58;;;;;;;22.57;9.73;;;-0.70;99.90;;;;;;4956506;28;20297;-91
2021/04/07 00:30:29;;;;;;;24.80;10.53;;;-0.70;99.90;;;;;;4955558;29;20523;-90
2021/04/07 00:32:56;;;;;;;22.33;10.63;;;-0.70;99.90;;;;;;4956985;29;20259;-90
2021/04/07 00:35:22;;;;;;;22.60;9.77;;;-0.70;99.90;;;;;;4956023;29;20183;-90
2021/04/07 00:37:48;;;;;;;23.97;10.53;;;-0.70;99.90;;;;;;4956398;28;20190;-91
2021/04/07 00:40:15;;;;;;;21.33;10.10;;;-0.80;99.90;;;;;;4956163;29;20183;-92
2021/04/07 00:42:42;;;;;;;26.07;11.60;;;-0.80;99.90;;;;;;4955743;28;20207;-93
2021/04/07 00:45:10;;;;;;;22.53;10.23;;;-0.80;99.90;;;;;;4956303;29;20270;-94
2021/04/07 00:47:36;;;;;;;24.03;10.10;;;-0.80;99.90;;;;;;4958123;28;20290;-91
2021/04/07 00:50:04;;;;;;;24.27;10.13;;;-0.80;99.90;;;;;;4956404;28;20181;-91
2021/04/07 00:52:29;;;;;;;23.60;9.83;;;-0.90;99.90;;;;;;4955545;28;20202;-92
2021/04/07 00:54:56;;;;;;;22.50;9.90;;;-0.90;99.90;;;;;;4955620;29;20661;-91
2021/04/07 00:57:23;;;;;;;22.80;11.67;;;-0.90;99.90;;;;;;4955013;28;20731;-94
2021/04/07 00:59:50;;;;;;;19.03;9.83;;;-0.90;99.90;;;;;;4955462;28;20625;-92
2021/04/07 01:02:17;;;;;;;19.37;9.57;;;-0.90;99.90;;;;;;4953777;28;20198;-91
2021/04/07 01:04:44;;;;;;;23.60;10.17;;;-0.90;99.90;;;;;;4938372;29;20185;-91
2021/04/07 01:07:11;;;;;;;20.83;11.63;;;-1.00;99.90;;;;;;4954488;29;20189;-93
2021/04/07 01:09:37;;;;;;;24.00;11.30;;;-1.00;99.90;;;;;;4954318;28;20183;-92
2021/04/07 01:12:04;;;;;;;26.00;11.77;;;-1.00;99.90;;;;;;4955133;28;20184;-91
2021/04/07 01:14:30;;;;;;;19.37;10.13;;;-1.00;99.90;;;;;;4955177;28;20190;-92
2021/04/07 01:16:56;;;;;;;22.10;9.67;;;-1.00;99.90;;;;;;4955350;28;20632;-92
2021/04/07 01:19:25;;;;;;;21.80;9.50;;;-1.10;99.90;;;;;;4954876;29;20197;-91
2021/04/07 01:21:51;;;;;;;23.17;10.60;;;-1.10;99.90;;;;;;4955165;28;20175;-91
2021/04/07 01:24:18;;;;;;;22.03;10.37;;;-1.10;99.90;;;;;;4955101;28;20262;-91
2021/04/07 01:26:43;;;;;;;24.77;11.13;;;-1.10;99.90;;;;;;4953871;28;20179;-91
2021/04/07 01:29:09;;;;;;;22.63;11.07;;;-1.20;99.90;;;;;;4953472;29;20558;-92
2021/04/07 01:31:48;;;;;;;22.87;10.93;;;-1.20;99.90;;;;;;4954282;29;20190;-91
2021/04/07 01:34:22;;;;;;;29.57;12.20;;;-1.20;99.90;;;;;;4955242;29;20181;-91
2021/04/07 01:36:48;;;;;;;23.03;11.23;;;-1.20;99.90;;;;;;4955230;28;20190;-92
2021/04/07 01:39:14;;;;;;;28.27;12.40;;;-1.20;99.90;;;;;;4971164;28;20170;-92
2021/04/07 01:41:41;;;;;;;24.83;10.80;;;-1.30;99.90;;;;;;4967989;29;20243;-92
2021/04/07 01:44:07;;;;;;;23.97;11.67;;;-1.20;99.90;;;;;;4952816;28;20193;-92
2021/04/07 01:46:35;;;;;;;22.47;10.87;;;-1.20;99.90;;;;;;4955134;28;20181;-92
2021/04/07 01:49:01;;;;;;;21.90;10.27;;;-1.30;99.90;;;;;;4955037;28;20218;-93
2021/04/07 01:51:27;;;;;;;17.87;10.37;;;-1.20;99.90;;;;;;4953430;29;20583;-94
2021/04/07 01:54:05;;;;;;;21.67;9.40;;;-1.20;99.90;;;;;;4954896;28;20671;-93
2021/04/07 01:56:31;;;;;;;22.47;10.37;;;-1.20;99.90;;;;;;4954611;28;20224;-92
2021/04/07 01:59:04;;;;;;;23.90;11.23;;;-1.20;99.90;;;;;;4953784;29;20196;-94
2021/04/07 02:01:30;;;;;;;26.53;10.63;;;-1.20;99.90;;;;;;4954563;28;20181;-94
2021/04/07 02:03:56;;;;;;;23.60;10.40;;;-1.20;99.90;;;;;;4953515;29;20193;-93
2021/04/07 02:06:22;;;;;;;21.23;10.53;;;-1.20;99.90;;;;;;4954703;28;20533;-94
2021/04/07 02:08:48;;;;;;;17.60;8.53;;;-1.20;99.90;;;;;;4953664;28;20232;-94
2021/04/07 02:11:15;;;;;;;24.07;11.00;;;-1.20;99.90;;;;;;4954509;28;20285;-93
2021/04/07 02:13:41;;;;;;;22.03;10.80;;;-1.30;99.90;;;;;;4954032;29;20361;-93
2021/04/07 02:16:14;;;;;;;22.60;10.23;;;-1.30;99.90;;;;;;4953445;28;20186;-93
2021/04/07 02:18:41;;;;;;;23.27;10.07;;;-1.30;99.90;;;;;;4952181;28;20375;-93
2021/04/07 02:21:08;;;;;;;28.27;11.17;;;-1.30;99.90;;;;;;4954833;28;20265;-92
2021/04/07 02:23:35;;;;;;;18.53;10.20;;;-1.30;99.90;;;;;;4957634;28;20179;-92
2021/04/07 02:26:01;;;;;;;26.10;11.20;;;-1.30;99.90;;;;;;4958211;28;20255;-93
2021/04/07 02:28:26;;;;;;;27.87;11.37;;;-1.20;99.90;;;;;;4957586;28;20246;-92
2021/04/07 02:30:52;;;;;;;23.30;11.57;;;-1.30;99.90;;;;;;4957978;28;20214;-93
2021/04/07 02:33:19;;;;;;;25.47;11.00;;;-1.30;99.90;;;;;;4958314;29;20270;-93
2021/04/07 02:35:45;;;;;;;30.13;11.97;;;-1.30;99.90;;;;;;4940749;29;20699;-93
2021/04/07 02:38:11;;;;;;;23.27;11.23;;;-1.30;99.90;;;;;;4957859;28;20198;-93
2021/04/07 02:40:37;;;;;;;22.30;11.87;;;-1.30;99.90;;;;;;4956367;29;20195;-93
2021/04/07 02:43:03;;;;;;;26.17;11.37;;;-1.40;99.90;;;;;;4957987;28;20213;-94
2021/04/07 02:45:29;;;;;;;22.40;10.97;;;-1.30;99.90;;;;;;4957675;28;20187;-92
2021/04/07 02:47:55;;;;;;;28.20;11.87;;;-1.40;99.90;;;;;;4957732;28;20246;-93
2021/04/07 02:50:21;;;;;;;27.80;11.90;;;-1.40;99.90;;;;;;4956762;28;20186;-93
2021/04/07 02:52:47;;;;;;;20.77;11.37;;;-1.40;99.90;;;;;;4940639;29;20237;-92
2021/04/07 02:55:13;;;;;;;30.20;11.33;;;-1.40;99.90;;;;;;4957888;28;20186;-93
2021/04/07 02:57:39;;;;;;;25.13;10.63;;;-1.40;99.90;;;;;;4957444;29;20244;-93
2021/04/07 03:00:07;;;;;;;31.93;12.37;;;-1.40;99.90;;;;;;4956595;29;20657;-95
2021/04/07 03:02:33;;;;;;;27.13;11.90;;;-1.40;99.90;;;;;;4940296;29;20638;-94
2021/04/07 03:04:59;;;;;;;23.67;11.13;;;-1.40;99.90;;;;;;4956440;28;20190;-93
2021/04/07 03:07:25;;;;;;;24.60;12.47;;;-1.50;99.90;;;;;;4957159;28;20190;-94
2021/04/07 03:09:51;;;;;;;24.10;11.23;;;-1.50;99.90;;;;;;4957623;28;20710;-94
2021/04/07 03:12:17;;;;;;;20.50;10.97;;;-1.50;99.90;;;;;;4957274;29;20206;-94
2021/04/07 03:14:43;;;;;;;35.33;12.33;;;-1.50;99.90;;;;;;4956938;29;20186;-92
2021/04/07 03:17:09;;;;;;;28.53;12.47;;;-1.50;99.90;;;;;;4956335;29;20184;-93
2021/04/07 03:19:35;;;;;;;29.17;11.83;;;-1.60;99.90;;;;;;4955545;29;20673;-89
2021/04/07 03:22:01;;;;;;;28.87;11.70;;;-1.60;99.90;;;;;;4955713;28;20188;-91
2021/04/07 03:24:27;;;;;;;26.90;12.13;;;-1.60;99.90;;;;;;4956777;28;20192;-89
2021/04/07 03:26:53;;;;;;;24.67;11.80;;;-1.50;99.90;;;;;;4939673;29;20216;-92
2021/04/07 03:29:18;;;;;;;21.53;10.60;;;-1.50;99.90;;;;;;4955517;29;20239;-91
2021/04/07 03:31:44;;;;;;;26.87;12.07;;;-1.50;99.90;;;;;;4956119;29;20186;-91
2021/04/07 03:34:10;;;;;;;28.67;12.40;;;-1.50;99.90;;;;;;4939133;29;20531;-92
2021/04/07 03:36:35;;;;;;;29.90;12.47;;;-1.60;99.90;;;;;;4957260;29;20196;-92
2021/04/07 03:39:02;;;;;;;27.13;11.37;;;-1.60;99.90;;;;;;4958803;29;20190;-92
2021/04/07 03:41:28;;;;;;;26.87;12.40;;;-1.60;99.90;;;;;;4956139;28;20193;-91
2021/04/07 03:43:53;;;;;;;30.33;12.27;;;-1.60;99.90;;;;;;4939338;29;20188;-92
2021/04/07 03:46:19;;;;;;;24.30;10.97;;;-1.60;99.90;;;;;;4956552;28;20256;-92
2021/04/07 03:48:45;;;;;;;22.30;11.27;;;-1.60;99.90;;;;;;4956496;29;20218;-92
2021/04/07 03:51:10;;;;;;;36.13;14.53;;;-1.60;99.90;;;;;;4939952;29;20233;-93
2021/04/07 03:53:36;;;;;;;23.17;11.10;;;-1.60;99.90;;;;;;4939497;29;20207;-93
2021/04/07 03:56:02;;;;;;;26.10;13.20;;;-1.60;99.90;;;;;;4956680;29;20215;-94
2021/04/07 03:58:28;;;;;;;29.50;15.43;;;-1.60;99.90;;;;;;4955829;28;20548;-92
2021/04/07 04:00:54;;;;;;;29.63;14.60;;;-1.70;99.90;;;;;;4956524;28;20179;-93
2021/04/07 04:03:23;;;;;;;35.23;12.87;;;-1.70;99.90;;;;;;4956135;28;20584;-93
2021/04/07 04:05:49;;;;;;;27.33;11.90;;;-1.70;99.90;;;;;;4955884;28;20205;-93
2021/04/07 04:08:15;;;;;;;32.27;13.10;;;-1.70;99.90;;;;;;4951408;28;20201;-91
2021/04/07 04:10:41;;;;;;;31.83;13.00;;;-1.70;99.90;;;;;;4953893;28;20271;-93
2021/04/07 04:13:07;;;;;;;28.97;12.43;;;-1.70;99.90;;;;;;4955499;28;20206;-91
2021/04/07 04:15:33;;;;;;;36.27;13.90;;;-1.70;99.90;;;;;;4962910;28;20187;-90
2021/04/07 04:17:59;;;;;;;36.00;12.97;;;-1.70;99.90;;;;;;4957047;28;20206;-93
2021/04/07 04:20:26;;;;;;;31.77;12.77;;;-1.70;99.90;;;;;;4962574;28;20610;-91
2021/04/07 04:22:52;;;;;;;35.23;13.17;;;-1.70;99.90;;;;;;4953254;28;20198;-90
2021/04/07 04:25:19;;;;;;;36.43;14.57;;;-1.60;99.90;;;;;;4945080;28;20678;-89
2021/04/07 04:27:46;;;;;;;18.57;9.13;;;-1.60;99.90;;;;;;4954188;28;20224;-91
2021/04/07 04:30:14;;;;;;;27.23;13.60;;;-1.60;99.90;;;;;;4956876;28;20214;-91
2021/04/07 04:32:41;;;;;;;26.73;11.73;;;-1.60;99.90;;;;;;4957958;28;20217;-93
2021/04/07 04:35:08;;;;;;;32.63;12.97;;;-1.60;99.90;;;;;;4953292;28;20240;-92
2021/04/07 04:37:34;;;;;;;30.93;13.13;;;-1.60;99.90;;;;;;4953432;28;20221;-95
2021/04/07 04:40:00;;;;;;;34.33;14.97;;;-1.60;99.90;;;;;;4953602;28;20281;-91
2021/04/07 04:42:26;;;;;;;25.70;11.03;;;-1.50;99.90;;;;;;4959447;28;20226;-88
2021/04/07 04:44:52;;;;;;;28.97;12.43;;;-1.50;99.90;;;;;;4972310;28;20870;-90
2021/04/07 04:47:18;;;;;;;30.03;13.03;;;-1.50;99.90;;;;;;4958777;28;20236;-92
2021/04/07 04:49:44;;;;;;;23.50;12.70;;;-1.40;99.90;;;;;;4952478;28;20183;-90
2021/04/07 04:52:09;;;;;;;25.37;12.07;;;-1.40;99.90;;;;;;4951213;28;20215;-91
2021/04/07 04:54:35;;;;;;;29.70;13.20;;;-1.30;99.90;;;;;;4952928;28;20205;-91
2021/04/07 04:57:01;;;;;;;31.77;13.80;;;-1.30;99.90;;;;;;4952250;28;20193;-92
2021/04/07 04:59:26;;;;;;;25.70;11.07;;;-1.20;99.90;;;;;;4935659;29;20356;-93
2021/04/07 05:01:52;;;;;;;27.60;12.67;;;-1.20;99.90;;;;;;4946421;28;20187;-93
2021/04/07 05:04:18;;;;;;;27.73;11.83;;;-1.10;99.90;;;;;;4928336;29;20270;-92
2021/04/07 05:06:44;;;;;;;27.17;12.33;;;-1.10;99.90;;;;;;4947905;28;20188;-94
2021/04/07 05:09:09;;;;;;;35.77;12.70;;;-1.00;99.90;;;;;;4951622;28;20187;-93
2021/04/07 05:11:35;;;;;;;21.63;9.33;;;-0.90;99.90;;;;;;4941423;28;20240;-90
2021/04/07 05:14:02;;;;;;;22.87;10.80;;;-0.90;99.90;;;;;;4949794;28;20184;-92
2021/04/07 05:16:29;;;;;;;23.07;11.43;;;-1.00;99.90;;;;;;4951419;28;20202;-91
2021/04/07 05:18:55;;;;;;;27.90;12.53;;;-1.00;99.90;;;;;;4950120;28;20230;-92
2021/04/07 05:21:21;;;;;;;34.10;12.87;;;-0.90;99.90;;;;;;4947998;29;20190;-92
2021/04/07 05:23:46;;;;;;;34.60;12.30;;;-0.80;99.90;;;;;;4951530;28;20270;-93
2021/04/07 05:26:12;;;;;;;28.47;11.87;;;-0.70;99.90;;;;;;4936236;29;20199;-91
2021/04/07 05:28:42;;;;;;;32.33;13.50;;;-0.70;99.90;;;;;;4936264;29;20195;-93
2021/04/07 05:31:12;;;;;;;27.37;12.00;;;-0.60;99.90;;;;;;4936853;29;20296;-92
2021/04/07 05:33:40;;;;;;;27.47;12.23;;;-0.50;99.90;;;;;;4953791;28;20282;-91
2021/04/07 05:36:08;;;;;;;24.57;11.97;;;-0.40;99.90;;;;;;4953658;28;20182;-93
2021/04/07 05:38:34;;;;;;;25.73;10.90;;;-0.40;99.90;;;;;;4954098;29;20659;-95
2021/04/07 05:41:02;;;;;;;28.40;11.50;;;-0.20;99.90;;;;;;4954205;28;20262;-92
2021/04/07 05:43:28;;;;;;;23.60;9.97;;;-0.10;99.90;;;;;;4937367;29;20186;-94
2021/04/07 05:45:54;;;;;;;24.00;11.30;;;0.00;99.90;;;;;;4952844;29;20187;-94
2021/04/07 05:48:20;;;;;;;21.87;11.03;;;0.10;99.90;;;;;;4956599;28;20227;-94
2021/04/07 05:50:51;;;;;;;24.27;10.87;;;0.10;99.90;;;;;;4939561;29;20186;-92
2021/04/07 05:53:18;;;;;;;24.60;11.60;;;0.20;99.90;;;;;;4954791;29;20231;-94
2021/04/07 05:55:45;;;;;;;24.93;10.63;;;0.20;99.90;;;;;;4955665;28;20181;-93
2021/04/07 05:58:11;;;;;;;30.30;13.23;;;0.30;99.90;;;;;;4959482;28;20344;-92
2021/04/07 06:00:38;;;;;;;23.23;10.50;;;0.40;99.90;;;;;;4958602;28;20198;-93
2021/04/07 06:03:05;;;;;;;26.07;11.73;;;0.50;99.90;;;;;;4957387;28;20246;-94
2021/04/07 06:05:31;;;;;;;24.97;10.00;;;0.50;99.90;;;;;;4957862;29;20295;-95
2021/04/07 06:08:00;;;;;;;26.77;10.83;;;0.60;99.90;;;;;;4958350;28;20183;-92
2021/04/07 06:10:27;;;;;;;20.80;9.97;;;0.60;99.90;;;;;;4959070;28;20235;-93
2021/04/07 06:12:56;;;;;;;21.40;9.87;;;0.60;99.90;;;;;;4942478;29;20219;-92
2021/04/07 06:15:23;;;;;;;25.27;11.50;;;0.70;99.90;;;;;;4957932;28;20189;-92
2021/04/07 06:18:06;;;;;;;26.30;10.77;;;0.80;99.90;;;;;;4955938;29;20277;-94
2021/04/07 06:20:38;;;;;;;25.77;10.67;;;0.90;99.90;;;;;;4956354;29;20222;-95
2021/04/07 06:23:05;;;;;;;22.83;9.77;;;1.00;99.90;;;;;;4956132;28;20194;-93
2021/04/07 06:25:33;;;;;;;20.67;9.37;;;1.10;99.90;;;;;;4956872;29;20202;-92
2021/04/07 06:28:01;;;;;;;20.03;10.70;;;1.10;99.90;;;;;;4942351;29;20187;-93
2021/04/07 06:33:17;;;;;;;20.23;8.67;;;1.20;99.90;;;;;;4957644;29;20685;-93
2021/04/07 06:35:49;;;;;;;19.40;9.33;;;1.30;99.90;;;;;;4956151;29;20183;-92
2021/04/07 06:38:16;;;;;;;23.43;10.93;;;1.30;99.90;;;;;;4953784;28;20239;-93
2021/04/07 06:40:42;;;;;;;17.40;10.13;;;1.50;99.90;;;;;;4957422;28;20187;-94
2021/04/07 06:43:09;;;;;;;15.20;8.03;;;1.60;99.90;;;;;;4952161;29;20235;-93
2021/04/07 06:45:37;;;;;;;16.33;8.37;;;1.80;99.90;;;;;;4964561;28;20186;-93
2021/04/07 06:48:04;;;;;;;25.30;9.63;;;1.90;99.90;;;;;;4949991;29;20218;-94
2021/04/07 06:50:29;;;;;;;19.30;8.70;;;1.90;99.90;;;;;;4940711;29;20193;-93
2021/04/07 06:53:01;;;;;;;25.33;9.57;;;1.80;99.90;;;;;;4940524;29;20176;-94
2021/04/07 06:55:27;;;;;;;13.53;7.17;;;1.80;99.90;;;;;;4940018;29;20184;-93
2021/04/07 06:57:54;;;;;;;18.27;8.07;;;1.90;99.90;;;;;;4938452;29;20238;-93
2021/04/07 07:00:21;;;;;;;21.13;8.10;;;2.10;99.90;;;;;;4939387;29;20176;-92
2021/04/07 07:02:47;;;;;;;16.30;7.50;;;2.20;99.90;;;;;;4937823;29;20184;-93
2021/04/07 07:05:16;;;;;;;16.77;7.83;;;2.20;99.90;;;;;;4937582;29;20191;-94
2021/04/07 07:07:42;;;;;;;19.27;8.27;;;2.30;99.90;;;;;;4938239;29;20270;-93
2021/04/07 07:10:08;;;;;;;15.37;7.33;;;2.40;99.90;;;;;;4938437;29;20264;-92
2021/04/07 07:12:35;;;;;;;21.13;9.43;;;2.50;99.90;;;;;;4946890;29;20264;-90
2021/04/07 07:15:02;;;;;;;22.90;8.80;;;2.40;99.90;;;;;;4959024;28;20187;-94
2021/04/07 07:17:38;;;;;;;17.03;8.37;;;2.50;99.90;;;;;;4943261;29;20630;-92
2021/04/07 07:20:04;;;;;;;18.40;9.03;;;2.60;99.90;;;;;;4958030;28;20201;-93
2021/04/07 07:22:30;;;;;;;18.10;8.13;;;2.50;99.90;;;;;;4954390;29;20187;-94
2021/04/07 07:25:01;;;;;;;16.90;7.60;;;2.60;99.90;;;;;;4957615;29;20210;-90
2021/04/07 07:27:45;;;;;;;25.60;7.97;;;2.70;99.90;;;;;;4957157;28;20233;-93
2021/04/07 07:30:12;;;;;;;16.10;7.20;;;2.90;99.90;;;;;;4956916;29;20189;-93
2021/04/07 07:32:40;;;;;;;18.53;7.60;;;2.90;99.90;;;;;;4958765;29;20217;-93
2021/04/07 07:35:07;;;;;;;20.03;8.23;;;3.00;99.90;;;;;;4960194;28;20202;-92
2021/04/07 07:37:33;;;;;;;10.60;6.27;;;3.10;99.90;;;;;;4958040;28;20186;-94
2021/04/07 07:39:59;;;;;;;14.67;7.47;;;2.90;99.90;;;;;;4956638;28;20188;-92
2021/04/07 07:42:24;;;;;;;14.33;6.70;;;2.80;99.90;;;;;;4955395;29;20207;-92
2021/04/07 07:44:50;;;;;;;12.70;6.73;;;2.80;99.90;;;;;;4954706;29;20258;-91
2021/04/07 07:47:19;;;;;;;13.97;7.27;;;2.80;99.90;;;;;;4953558;29;20195;-91
2021/04/07 07:50:05;;;;;;;10.80;6.30;;;2.90;99.90;;;;;;4954700;28;20279;-92
2021/04/07 07:52:33;;;;;;;10.80;6.30;;;3.00;99.90;;;;;;4954547;28;20206;-90
2021/04/07 07:55:11;;;;;;;16.03;7.60;;;3.00;99.90;;;;;;4953161;29;20186;-89
2021/04/07 07:57:36;;;;;;;15.00;6.37;;;3.20;99.90;;;;;;4956221;28;20172;-92
2021/04/07 08:00:09;;;;;;;14.53;6.70;;;3.30;99.90;;;;;;4957316;28;20183;-93
2021/04/07 08:02:37;;;;;;;18.23;7.70;;;3.30;99.90;;;;;;4957696;28;20179;-91
2021/04/07 08:05:14;;;;;;;14.33;8.33;;;3.00;99.90;;;;;;4959355;28;20221;-92
2021/04/07 08:07:40;;;;;;;15.47;7.87;;;2.90;99.90;;;;;;4956786;28;20179;-91
2021/04/07 08:10:06;;;;;;;15.40;7.43;;;2.90;99.90;;;;;;4955677;29;20265;-91
2021/04/07 08:12:33;;;;;;;19.23;8.37;;;3.00;99.90;;;;;;4955296;29;20183;-92
2021/04/07 08:15:00;;;;;;;13.03;6.87;;;3.00;99.90;;;;;;4954509;29;20347;-91
2021/04/07 08:17:29;;;;;;;18.90;7.83;;;3.10;99.90;;;;;;4955899;28;20186;-92
2021/04/07 08:19:57;;;;;;;15.73;6.67;;;3.30;99.90;;;;;;4955469;28;20271;-91
2021/04/07 08:22:25;;;;;;;16.70;7.73;;;3.30;99.90;;;;;;4954257;29;20187;-91
2021/04/07 08:24:53;;;;;;;9.70;5.40;;;3.50;99.90;;;;;;4955098;29;20227;-92
2021/04/07 08:27:20;;;;;;;9.57;6.03;;;3.50;99.90;;;;;;4954409;29;20183;-92
2021/04/07 08:29:46;;;;;;;11.40;5.47;;;3.70;99.90;;;;;;4954901;29;20179;-93
2021/04/07 08:32:13;;;;;;;8.27;4.93;;;3.70;99.90;;;;;;4955690;28;20655;-95
2021/04/07 08:34:39;;;;;;;7.33;4.03;;;3.60;99.90;;;;;;4954643;29;20194;-89
2021/04/07 08:37:05;;;;;;;12.27;6.27;;;3.60;99.90;;;;;;4953998;29;20191;-88
2021/04/07 08:39:43;;;;;;;12.60;6.23;;;3.70;99.90;;;;;;4954601;29;20633;-91
2021/04/07 08:42:13;;;;;;;14.67;6.33;;;3.70;99.90;;;;;;4956769;28;20208;-93
2021/04/07 08:44:50;;;;;;;14.13;6.13;;;3.80;99.90;;;;;;4953788;29;20729;-91
2021/04/07 08:47:31;;;;;;;12.47;6.20;;;3.70;99.90;;;;;;4954107;28;20317;-91
2021/04/07 08:50:06;;;;;;;12.73;5.37;;;3.90;99.90;;;;;;4955480;29;20190;-92
2021/04/07 08:52:48;;;;;;;12.00;6.13;;;4.10;99.90;;;;;;4954207;29;20185;-89
2021/04/07 08:55:19;;;;;;;11.80;6.13;;;4.20;99.90;;;;;;4955610;28;20264;-92
2021/04/07 08:57:59;;;;;;;14.00;7.23;;;4.30;99.90;;;;;;4954692;29;20729;-89
2021/04/07 09:00:27;;;;;;;11.33;6.87;;;4.30;99.90;;;;;;4957768;28;20273;-92
2021/04/07 09:02:59;;;;;;;13.13;6.03;;;4.10;99.90;;;;;;4958967;29;20187;-95
2021/04/07 09:05:39;;;;;;;10.60;5.40;;;4.10;99.90;;;;;;4956686;29;20183;-92
2021/04/07 09:08:06;;;;;;;9.03;4.77;;;4.30;99.90;;;;;;4959276;28;20549;-94
2021/04/07 09:10:41;;;;;;;16.20;6.87;;;4.20;97.80;;;;;;4959516;28;20279;-91
2021/04/07 09:13:08;;;;;;;8.67;5.10;;;4.10;98.40;;;;;;4955876;29;20188;-94
2021/04/07 09:16:00;;;;;;;11.60;6.33;;;3.90;96.20;;;;;;4955932;29;20867;-95
2021/04/07 09:18:39;;;;;;;8.70;4.90;;;3.90;96.30;;;;;;4959826;29;20238;-94
2021/04/07 09:21:20;;;;;;;12.40;6.73;;;4.20;94.80;;;;;;4964511;29;20178;-95
2021/04/07 09:23:51;;;;;;;10.70;5.40;;;4.40;95.80;;;;;;4958199;29;20193;-95
2021/04/07 09:26:19;;;;;;;10.30;4.90;;;4.30;95.90;;;;;;4956908;29;20203;-94
2021/04/07 09:28:45;;;;;;;9.33;5.37;;;4.10;93.20;;;;;;4954342;29;20191;-92
2021/04/07 09:31:16;;;;;;;18.03;7.13;;;4.10;93.70;;;;;;4949086;28;20191;-93
2021/04/07 09:33:48;;;;;;;9.87;5.50;;;4.00;96.50;;;;;;4952633;29;20186;-92
2021/04/07 09:36:15;;;;;;;8.30;5.40;;;4.00;95.10;;;;;;4938139;29;20207;-92
2021/04/07 09:38:49;;;;;;;10.90;4.90;;;4.00;95.30;;;;;;4938803;29;20209;-91
2021/04/07 09:41:18;;;;;;;10.53;5.40;;;4.00;94.80;;;;;;4937231;29;20239;-92
2021/04/07 09:43:44;;;;;;;12.57;6.07;;;4.20;92.20;;;;;;4937437;29;20207;-90
2021/04/07 09:46:10;;;;;;;13.27;6.83;;;4.50;90.90;;;;;;4919692;29;20187;-87
2021/04/07 09:48:57;;;;;;;17.73;8.03;;;4.50;92.90;;;;;;4938006;29;20225;-91
2021/04/07 09:51:23;;;;;;;13.23;8.93;;;4.60;94.60;;;;;;4955024;29;20356;-93
2021/04/07 09:53:50;;;;;;;14.87;7.30;;;4.60;93.80;;;;;;4956191;28;20670;-91
2021/04/07 09:56:16;;;;;;;8.13;5.50;;;4.30;92.60;;;;;;4955874;29;20180;-90
2021/04/07 09:58:47;;;;;;;17.53;8.17;;;4.20;93.20;;;;;;4954609;29;20226;-92
2021/04/07 10:01:15;;;;;;;9.80;6.07;;;3.90;95.00;;;;;;4955222;28;20178;-91
2021/04/07 10:03:54;;;;;;;12.27;6.27;;;3.80;94.00;;;;;;4953134;29;20262;-92
2021/04/07 10:06:21;;;;;;;14.53;7.37;;;4.00;94.80;;;;;;4953736;29;20183;-87
2021/04/07 10:09:04;;;;;;;14.90;7.23;;;4.00;96.80;;;;;;4954266;28;20184;-90
2021/04/07 10:11:31;;;;;;;14.00;6.30;;;4.00;97.00;;;;;;4938666;29;20234;-91
2021/04/07 10:14:01;;;;;;;11.87;6.47;;;3.90;95.60;;;;;;4941960;29;20225;-91
2021/04/07 10:16:33;;;;;;;10.23;5.57;;;3.90;94.70;;;;;;4955899;29;20179;-92
2021/04/07 10:19:00;;;;;;;9.80;5.27;;;4.10;94.60;;;;;;4953940;29;20215;-88
2021/04/07 10:21:27;;;;;;;7.50;4.67;;;4.50;92.50;;;;;;4953044;28;20194;-89
2021/04/07 10:23:56;;;;;;;9.63;4.83;;;4.50;90.70;;;;;;4953047;28;20187;-92
2021/04/07 10:26:22;;;;;;;11.30;5.50;;;4.40;91.30;;;;;;4937499;29;20284;-91
2021/04/07 10:28:58;;;;;;;10.53;5.77;;;4.20;93.60;;;;;;4953438;28;20313;-90
2021/04/07 10:31:25;;;;;;;10.10;4.80;;;4.10;95.20;;;;;;4949262;29;20283;-91
2021/04/07 10:34:31;;;;;;;9.03;5.33;;;4.30;97.50;;;;;;4951632;28;20271;-87
2021/04/07 10:36:57;;;;;;;10.00;6.17;;;4.20;99.70;;;;;;4941560;28;20288;-90
2021/04/07 10:39:24;;;;;;;11.20;5.97;;;4.10;99.10;;;;;;4946818;29;20228;-91
2021/04/07 10:41:56;;;;;;;9.33;5.10;;;4.10;98.00;;;;;;4958634;29;20216;-91
2021/04/07 10:44:27;;;;;;;12.10;6.60;;;4.10;97.50;;;;;;4958652;29;20200;-93
2021/04/07 10:46:54;;;;;;;9.53;5.83;;;4.00;96.60;;;;;;4964895;29;20177;-94
2021/04/07 10:49:21;;;;;;;7.67;5.20;;;4.10;95.10;;;;;;4972997;28;20197;-89
2021/04/07 10:52:01;;;;;;;7.80;5.20;;;4.10;94.30;;;;;;4959932;28;20300;-93
2021/04/07 10:54:28;;;;;;;9.37;5.10;;;4.30;92.50;;;;;;4958490;28;20652;-94
2021/04/07 10:57:09;;;;;;;10.37;6.40;;;4.50;91.40;;;;;;4957811;29;20182;-91
2021/04/07 10:59:36;;;;;;;11.97;6.77;;;4.70;91.70;;;;;;4956684;28;20224;-90
2021/04/07 11:02:15;;;;;;;11.27;6.73;;;4.60;87.80;;;;;;4959146;29;20191;-95
2021/04/07 11:04:41;;;;;;;9.03;5.07;;;4.30;87.00;;;;;;4965053;28;20388;-94
2021/04/07 11:07:12;;;;;;;14.10;5.93;;;4.20;86.30;;;;;;4959761;28;20187;-94
2021/04/07 11:09:46;;;;;;;11.50;6.17;;;4.30;86.00;;;;;;4957368;28;20175;-92
2021/04/07 11:12:12;;;;;;;13.03;5.90;;;4.40;86.80;;;;;;4960848;28;20182;-94
2021/04/07 11:14:39;;;;;;;11.97;6.20;;;4.40;90.20;;;;;;4961562;29;20186;-95
2021/04/07 11:17:14;;;;;;;14.53;7.03;;;4.60;89.10;;;;;;4942673;29;20209;-93
2021/04/07 11:19:40;;;;;;;12.20;5.27;;;4.70;88.60;;;;;;4954084;29;20229;-94
2021/04/07 11:22:07;;;;;;;10.73;5.73;;;4.80;86.20;;;;;;4970527;28;20233;-93
2021/04/07 11:24:33;;;;;;;8.83;6.00;;;5.00;83.50;;;;;;4958522;29;20194;-92
2021/04/07 11:26:59;;;;;;;9.30;4.40;;;5.20;79.10;;;;;;4967315;28;20349;-93
2021/04/07 11:29:25;;;;;;;6.43;5.23;;;5.10;75.80;;;;;;4958168;29;20195;-89
2021/04/07 11:31:56;;;;;;;11.77;4.77;;;5.10;75.10;;;;;;4958612;28;20201;-92
2021/04/07 11:34:30;;;;;;;9.60;4.57;;;5.40;73.40;;;;;;4959876;29;20201;-93
2021/04/07 11:44:44;;;;;;;8.73;4.73;;;6.10;70.30;;;;;;4963646;29;20638;-95
2021/04/07 11:47:09;;;;;;;7.83;4.17;;;5.90;68.80;;;;;;4961962;28;20210;-94
2021/04/07 11:49:36;;;;;;;6.70;4.63;;;5.70;70.00;;;;;;4959716;29;20251;-94
2021/04/07 11:52:10;;;;;;;12.73;7.57;;;5.60;71.20;;;;;;4947085;29;20190;-91
2021/04/07 11:54:36;;;;;;;11.00;6.43;;;5.20;73.00;;;;;;4958642;28;20205;-95
2021/04/07 11:57:04;;;;;;;12.00;7.73;;;5.30;76.00;;;;;;4942566;29;20652;-93
2021/04/07 11:59:30;;;;;;;12.23;7.27;;;5.50;76.90;;;;;;4952842;29;20215;-87
2021/04/07 12:01:59;;;;;;;12.13;5.23;;;5.40;77.70;;;;;;4961531;29;20246;-94
2021/04/07 12:04:26;;;;;;;10.27;6.33;;;5.20;73.40;;;;;;4960226;28;20182;-95
2021/04/07 12:06:52;;;;;;;9.67;6.80;;;5.20;76.60;;;;;;4942431;28;20183;-95
2021/04/07 12:09:21;;;;;;;12.00;5.93;;;5.50;75.40;;;;;;4945696;29;20192;-94
2021/04/07 12:11:48;;;;;;;10.80;6.10;;;5.70;73.60;;;;;;4925234;29;20223;-94
2021/04/07 12:14:14;;;;;;;9.53;6.20;;;6.00;71.10;;;;;;4948358;29;20183;-92
2021/04/07 12:16:40;;;;;;;13.33;6.40;;;5.70;69.20;;;;;;4951688;29;20190;-95
2021/04/07 12:19:10;;;;;;;9.97;6.20;;;5.50;71.00;;;;;;4949114;28;20351;-92
2021/04/07 12:21:37;;;;;;;11.30;6.23;;;5.60;70.50;;;;;;4947454;28;20235;-92
2021/04/07 12:24:05;;;;;;;9.10;6.10;;;5.80;70.30;;;;;;4955144;28;20182;-93
2021/04/07 12:26:31;;;;;;;10.27;6.20;;;5.90;69.00;;;;;;4956161;28;20183;-95
2021/04/07 12:28:57;;;;;;;9.47;6.33;;;5.60;66.40;;;;;;4962831;28;20191;-95
2021/04/07 12:31:23;;;;;;;8.50;6.60;;;5.40;67.00;;;;;;4957637;29;20212;-92
2021/04/07 12:33:56;;;;;;;10.10;5.83;;;5.30;65.90;;;;;;4957295;29;20238;-96
2021/04/07 12:36:28;;;;;;;8.73;5.80;;;5.20;68.00;;;;;;4957328;29;20229;-95
2021/04/07 12:38:59;;;;;;;9.83;5.67;;;5.00;66.60;;;;;;4955354;28;20230;-94
2021/04/07 12:41:33;;;;;;;7.57;5.10;;;5.30;68.20;;;;;;4955979;28;20221;-94
2021/04/07 12:43:59;;;;;;;8.57;5.60;;;5.70;62.50;;;;;;4956693;29;20197;-95
2021/04/07 12:46:26;;;;;;;6.37;4.63;;;5.70;63.10;;;;;;4957415;28;20183;-94
2021/04/07 12:48:52;;;;;;;8.10;5.40;;;5.70;59.70;;;;;;4958430;28;20238;-94
2021/04/07 12:51:19;;;;;;;8.07;5.90;;;5.60;60.90;;;;;;4956715;29;20182;-94
2021/04/07 12:53:46;;;;;;;6.30;4.90;;;5.70;60.70;;;;;;4954768;29;20193;-94